JST996 YSSY-YBCG
Flight info
| Callsign | JST996 |
|---|---|
| Flight time | 1h 3m |
| Altitude | 32000 |
| Route | OLSEM Y193 BANDA Y43 GREAV DCT GOMOL |
| Aircraft | A20N/M-SDE2E3FGHIJ1RWXY/LB1 |
Departure
| Time | 2026-04-26 07:50 |
|---|---|
| Airport | Sydney Kingsford Smith International Airport (YSSY) |
Arrival
| Time | 2026-04-26 08:53 |
|---|---|
| Airport | Gold Coast Airport (YBCG) |
| Time | Latitude | Longitude | Altitude | Speed | Heading |
|---|---|---|---|---|---|
| 2026-04-26 07:17 | -33.93563 | 151.17759 | 30 ft | 0 kts | 281° |
| 2026-04-26 07:32 | -33.93565 | 151.17772 | 30 ft | 4 kts | 278° |
| 2026-04-26 07:32 | -33.93569 | 151.17799 | 30 ft | 3 kts | 279° |
| 2026-04-26 07:32 | -33.93565 | 151.17825 | 30 ft | 4 kts | 208° |
| 2026-04-26 07:33 | -33.93541 | 151.17834 | 30 ft | 4 kts | 190° |
| 2026-04-26 07:33 | -33.93516 | 151.17839 | 30 ft | 2 kts | 190° |
| 2026-04-26 07:33 | -33.93515 | 151.17840 | 30 ft | 0 kts | 190° |
| 2026-04-26 07:36 | -33.93520 | 151.17839 | 30 ft | 3 kts | 190° |
| 2026-04-26 07:36 | -33.93580 | 151.17826 | 30 ft | 13 kts | 190° |
| 2026-04-26 07:37 | -33.93696 | 151.17799 | 30 ft | 20 kts | 195° |
| 2026-04-26 07:37 | -33.93849 | 151.17770 | 29 ft | 24 kts | 172° |
| 2026-04-26 07:37 | -33.94023 | 151.17812 | 28 ft | 27 kts | 167° |
| 2026-04-26 07:37 | -33.94209 | 151.17864 | 29 ft | 27 kts | 167° |
| 2026-04-26 07:38 | -33.94402 | 151.17912 | 29 ft | 26 kts | 171° |
| 2026-04-26 07:38 | -33.94552 | 151.17892 | 29 ft | 18 kts | 156° |
| 2026-04-26 07:38 | -33.94683 | 151.17922 | 30 ft | 21 kts | 167° |
| 2026-04-26 07:38 | -33.94832 | 151.17963 | 30 ft | 23 kts | 167° |
| 2026-04-26 07:39 | -33.94998 | 151.18003 | 30 ft | 25 kts | 168° |
| 2026-04-26 07:39 | -33.95099 | 151.18127 | 30 ft | 21 kts | 70° |
| 2026-04-26 07:39 | -33.95067 | 151.18299 | 30 ft | 21 kts | 78° |
| 2026-04-26 07:39 | -33.95047 | 151.18409 | 30 ft | 0 kts | 77° |
| 2026-04-26 07:40 | -33.95047 | 151.18411 | 30 ft | 1 kts | 77° |
| 2026-04-26 07:40 | -33.95043 | 151.18448 | 30 ft | 7 kts | 88° |
| 2026-04-26 07:40 | -33.95051 | 151.18486 | 30 ft | 0 kts | 122° |
| 2026-04-26 07:41 | -33.95062 | 151.18497 | 30 ft | 4 kts | 144° |
| 2026-04-26 07:41 | -33.95094 | 151.18524 | 30 ft | 8 kts | 143° |
| 2026-04-26 07:41 | -33.95157 | 151.18586 | 30 ft | 15 kts | 140° |
| 2026-04-26 07:42 | -33.95252 | 151.18681 | 30 ft | 22 kts | 147° |
| 2026-04-26 07:42 | -33.95412 | 151.18743 | 29 ft | 26 kts | 168° |
| 2026-04-26 07:42 | -33.95600 | 151.18792 | 29 ft | 29 kts | 167° |
| 2026-04-26 07:42 | -33.95801 | 151.18843 | 30 ft | 30 kts | 167° |
| 2026-04-26 07:43 | -33.96008 | 151.18896 | 30 ft | 30 kts | 168° |
| 2026-04-26 07:43 | -33.96212 | 151.18948 | 30 ft | 30 kts | 167° |
| 2026-04-26 07:43 | -33.96420 | 151.19007 | 29 ft | 32 kts | 166° |
| 2026-04-26 07:43 | -33.96608 | 151.19057 | 29 ft | 26 kts | 168° |
| 2026-04-26 07:44 | -33.96766 | 151.19063 | 30 ft | 24 kts | 190° |
| 2026-04-26 07:44 | -33.96933 | 151.19086 | 30 ft | 26 kts | 169° |
| 2026-04-26 07:44 | -33.97107 | 151.19149 | 30 ft | 25 kts | 137° |
| 2026-04-26 07:44 | -33.97116 | 151.19256 | 28 ft | 0 kts | 77° |
| 2026-04-26 07:46 | -33.97114 | 151.19264 | 28 ft | 3 kts | 77° |
| 2026-04-26 07:46 | -33.97100 | 151.19323 | 28 ft | 12 kts | 64° |
| 2026-04-26 07:46 | -33.97036 | 151.19365 | 27 ft | 7 kts | 351° |
| 2026-04-26 07:47 | -33.97034 | 151.19365 | 27 ft | 0 kts | 351° |
| 2026-04-26 07:48 | -33.96992 | 151.19357 | 27 ft | 31 kts | 351° |
| 2026-04-26 07:48 | -33.96540 | 151.19241 | 27 ft | 99 kts | 348° |
| 2026-04-26 07:49 | -33.95691 | 151.19018 | 74 ft | 145 kts | 350° |
| 2026-04-26 07:49 | -33.94623 | 151.18736 | 308 ft | 170 kts | 350° |
| 2026-04-26 07:49 | -33.93367 | 151.18529 | 603 ft | 196 kts | 6° |
| 2026-04-26 07:50 | -33.91109 | 151.20164 | 2186 ft | 191 kts | 44° |
| 2026-04-26 07:50 | -33.90120 | 151.21358 | 2625 ft | 212 kts | 42° |
| 2026-04-26 07:50 | -33.88956 | 151.22595 | 3063 ft | 234 kts | 38° |
| 2026-04-26 07:50 | -33.87633 | 151.23826 | 3608 ft | 255 kts | 35° |
| 2026-04-26 07:51 | -33.86168 | 151.25096 | 4459 ft | 262 kts | 34° |
| 2026-04-26 07:51 | -33.84661 | 151.26369 | 5404 ft | 269 kts | 34° |
| 2026-04-26 07:51 | -33.83319 | 151.27940 | 6325 ft | 274 kts | 59° |
| 2026-04-26 07:51 | -33.82523 | 151.30037 | 7250 ft | 277 kts | 70° |
| 2026-04-26 07:52 | -33.81901 | 151.32242 | 8224 ft | 279 kts | 72° |
| 2026-04-26 07:52 | -33.81310 | 151.34473 | 9187 ft | 282 kts | 71° |
| 2026-04-26 07:52 | -33.80622 | 151.36693 | 10147 ft | 285 kts | 65° |
| 2026-04-26 07:52 | -33.80000 | 151.38094 | 10668 ft | 291 kts | 58° |
| 2026-04-26 07:53 | -33.78378 | 151.40870 | 11116 ft | 322 kts | 53° |
| 2026-04-26 07:53 | -33.76959 | 151.43059 | 11556 ft | 339 kts | 51° |
| 2026-04-26 07:53 | -33.75451 | 151.45266 | 12392 ft | 342 kts | 50° |
| 2026-04-26 07:53 | -33.73909 | 151.47476 | 13183 ft | 348 kts | 50° |
| 2026-04-26 07:54 | -33.72340 | 151.49712 | 13997 ft | 353 kts | 50° |
| 2026-04-26 07:54 | -33.70750 | 151.51976 | 14736 ft | 355 kts | 50° |
| 2026-04-26 07:54 | -33.69150 | 151.54259 | 15487 ft | 359 kts | 50° |
| 2026-04-26 07:54 | -33.67542 | 151.56555 | 16269 ft | 361 kts | 51° |
| 2026-04-26 07:55 | -33.65902 | 151.58855 | 17003 ft | 364 kts | 48° |
| 2026-04-26 07:55 | -33.64048 | 151.60957 | 17672 ft | 369 kts | 40° |
| 2026-04-26 07:55 | -33.61949 | 151.62760 | 18369 ft | 374 kts | 34° |
| 2026-04-26 07:55 | -33.59784 | 151.64441 | 18988 ft | 377 kts | 34° |
| 2026-04-26 07:56 | -33.58294 | 151.65607 | 19395 ft | 380 kts | 34° |
| 2026-04-26 07:56 | -33.55348 | 151.67917 | 20186 ft | 385 kts | 34° |
| 2026-04-26 07:56 | -33.53861 | 151.69083 | 20585 ft | 387 kts | 34° |
| 2026-04-26 07:56 | -33.50793 | 151.71399 | 21359 ft | 393 kts | 30° |
| 2026-04-26 07:57 | -33.49165 | 151.72364 | 21740 ft | 396 kts | 25° |
| 2026-04-26 07:57 | -33.46568 | 151.73507 | 22304 ft | 401 kts | 18° |
| 2026-04-26 07:57 | -33.42940 | 151.74669 | 23060 ft | 406 kts | 16° |
| 2026-04-26 07:57 | -33.40237 | 151.75535 | 23608 ft | 410 kts | 16° |
| 2026-04-26 07:58 | -33.37471 | 151.76428 | 24102 ft | 413 kts | 16° |
| 2026-04-26 07:58 | -33.34685 | 151.77329 | 24570 ft | 416 kts | 16° |
| 2026-04-26 07:58 | -33.32827 | 151.77928 | 24867 ft | 419 kts | 16° |
| 2026-04-26 07:58 | -33.29039 | 151.79150 | 25449 ft | 424 kts | 16° |
| 2026-04-26 07:59 | -33.27150 | 151.79760 | 25746 ft | 426 kts | 16° |
| 2026-04-26 07:59 | -33.24280 | 151.80686 | 26171 ft | 429 kts | 16° |
| 2026-04-26 07:59 | -33.21386 | 151.81621 | 26594 ft | 432 kts | 16° |
| 2026-04-26 07:59 | -33.17519 | 151.82866 | 27128 ft | 437 kts | 16° |
| 2026-04-26 08:00 | -33.14573 | 151.83815 | 27527 ft | 440 kts | 16° |
| 2026-04-26 08:00 | -33.12574 | 151.84459 | 27799 ft | 442 kts | 16° |
| 2026-04-26 08:00 | -33.08622 | 151.85729 | 28277 ft | 446 kts | 16° |
| 2026-04-26 08:00 | -33.06630 | 151.86370 | 28525 ft | 448 kts | 16° |
| 2026-04-26 08:01 | -33.03609 | 151.87340 | 28891 ft | 451 kts | 16° |
| 2026-04-26 08:01 | -33.00571 | 151.88315 | 29256 ft | 454 kts | 16° |
| 2026-04-26 08:01 | -32.96513 | 151.89616 | 29698 ft | 458 kts | 16° |
| 2026-04-26 08:01 | -32.93432 | 151.90603 | 30048 ft | 460 kts | 15° |
| 2026-04-26 08:02 | -32.90332 | 151.91596 | 30374 ft | 463 kts | 15° |
| 2026-04-26 08:02 | -32.87210 | 151.92595 | 30623 ft | 466 kts | 15° |
| 2026-04-26 08:02 | -32.85132 | 151.93259 | 30841 ft | 468 kts | 15° |
| 2026-04-26 08:02 | -32.81986 | 151.94264 | 31078 ft | 469 kts | 15° |
| 2026-04-26 08:03 | -32.75673 | 151.96279 | 31247 ft | 470 kts | 15° |
| 2026-04-26 08:03 | -32.69366 | 151.98288 | 31252 ft | 469 kts | 15° |
| 2026-04-26 08:04 | -32.62039 | 152.00619 | 31255 ft | 469 kts | 15° |
| 2026-04-26 08:04 | -32.56754 | 152.02298 | 31254 ft | 469 kts | 15° |
| 2026-04-26 08:05 | -32.50489 | 152.04285 | 31255 ft | 469 kts | 15° |
| 2026-04-26 08:05 | -32.44182 | 152.06283 | 31253 ft | 469 kts | 15° |
| 2026-04-26 08:06 | -32.37870 | 152.08280 | 31254 ft | 469 kts | 15° |
| 2026-04-26 08:06 | -32.31562 | 152.10272 | 31258 ft | 469 kts | 15° |
| 2026-04-26 08:07 | -32.25291 | 152.12251 | 31256 ft | 470 kts | 15° |
| 2026-04-26 08:07 | -32.18973 | 152.14241 | 31248 ft | 470 kts | 15° |
| 2026-04-26 08:08 | -32.12652 | 152.16229 | 31253 ft | 470 kts | 15° |
| 2026-04-26 08:08 | -32.06323 | 152.18217 | 31259 ft | 471 kts | 15° |
| 2026-04-26 08:09 | -31.99988 | 152.20203 | 31263 ft | 471 kts | 15° |
| 2026-04-26 08:09 | -31.93685 | 152.22177 | 31260 ft | 472 kts | 15° |
| 2026-04-26 08:10 | -31.87331 | 152.24164 | 31264 ft | 473 kts | 15° |
| 2026-04-26 08:10 | -31.80973 | 152.26150 | 31268 ft | 473 kts | 15° |
| 2026-04-26 08:11 | -31.74608 | 152.28135 | 31260 ft | 474 kts | 15° |
| 2026-04-26 08:11 | -31.68276 | 152.30107 | 31267 ft | 474 kts | 15° |
| 2026-04-26 08:12 | -31.61895 | 152.32091 | 31277 ft | 475 kts | 15° |
| 2026-04-26 08:12 | -31.55506 | 152.34075 | 31279 ft | 475 kts | 15° |
| 2026-04-26 08:13 | -31.49112 | 152.36058 | 31276 ft | 476 kts | 15° |
| 2026-04-26 08:13 | -31.42714 | 152.38038 | 31278 ft | 476 kts | 15° |
| 2026-04-26 08:14 | -31.36355 | 152.40004 | 31281 ft | 476 kts | 15° |
| 2026-04-26 08:14 | -31.29944 | 152.41984 | 31277 ft | 476 kts | 15° |
| 2026-04-26 08:15 | -31.23536 | 152.43959 | 31274 ft | 477 kts | 15° |
| 2026-04-26 08:15 | -31.17123 | 152.45934 | 31275 ft | 477 kts | 15° |
| 2026-04-26 08:16 | -31.10708 | 152.47907 | 31277 ft | 477 kts | 15° |
| 2026-04-26 08:16 | -31.04332 | 152.49866 | 31265 ft | 477 kts | 14° |
| 2026-04-26 08:17 | -30.97908 | 152.51834 | 31264 ft | 477 kts | 14° |
| 2026-04-26 08:17 | -30.91479 | 152.53804 | 31262 ft | 478 kts | 15° |
| 2026-04-26 08:18 | -30.85041 | 152.55772 | 31262 ft | 478 kts | 15° |
| 2026-04-26 08:18 | -30.78682 | 152.57894 | 31146 ft | 480 kts | 21° |
| 2026-04-26 08:19 | -30.75584 | 152.59329 | 30904 ft | 479 kts | 22° |
| 2026-04-26 08:19 | -30.72502 | 152.60770 | 30662 ft | 477 kts | 22° |
| 2026-04-26 08:19 | -30.69429 | 152.62203 | 30431 ft | 475 kts | 22° |
| 2026-04-26 08:19 | -30.66371 | 152.63625 | 30167 ft | 473 kts | 22° |
| 2026-04-26 08:20 | -30.63323 | 152.65039 | 29882 ft | 471 kts | 22° |
| 2026-04-26 08:20 | -30.60287 | 152.66445 | 29604 ft | 470 kts | 22° |
| 2026-04-26 08:20 | -30.57251 | 152.67850 | 29331 ft | 469 kts | 22° |
| 2026-04-26 08:20 | -30.54271 | 152.69226 | 29060 ft | 465 kts | 22° |
| 2026-04-26 08:21 | -30.51275 | 152.70609 | 28790 ft | 463 kts | 22° |
| 2026-04-26 08:21 | -30.48291 | 152.71985 | 28525 ft | 460 kts | 22° |
| 2026-04-26 08:21 | -30.45322 | 152.73355 | 28260 ft | 458 kts | 22° |
| 2026-04-26 08:21 | -30.42373 | 152.74714 | 27999 ft | 455 kts | 22° |
| 2026-04-26 08:22 | -30.39434 | 152.76068 | 27740 ft | 453 kts | 22° |
| 2026-04-26 08:22 | -30.36507 | 152.77415 | 27478 ft | 451 kts | 22° |
| 2026-04-26 08:22 | -30.33601 | 152.78750 | 27223 ft | 449 kts | 23° |
| 2026-04-26 08:22 | -30.30703 | 152.80082 | 26961 ft | 447 kts | 23° |
| 2026-04-26 08:23 | -30.27862 | 152.81387 | 26722 ft | 444 kts | 23° |
| 2026-04-26 08:23 | -30.24995 | 152.82703 | 26473 ft | 442 kts | 23° |
| 2026-04-26 08:23 | -30.22140 | 152.84012 | 26236 ft | 440 kts | 23° |
| 2026-04-26 08:23 | -30.19303 | 152.85312 | 25991 ft | 437 kts | 23° |
| 2026-04-26 08:24 | -30.16484 | 152.86604 | 25745 ft | 436 kts | 23° |
| 2026-04-26 08:24 | -30.13664 | 152.87897 | 25505 ft | 435 kts | 23° |
| 2026-04-26 08:24 | -30.10856 | 152.89182 | 25261 ft | 433 kts | 23° |
| 2026-04-26 08:24 | -30.08099 | 152.90442 | 25028 ft | 431 kts | 23° |
| 2026-04-26 08:25 | -30.05318 | 152.91712 | 24800 ft | 429 kts | 23° |
| 2026-04-26 08:25 | -30.02549 | 152.92977 | 24564 ft | 427 kts | 23° |
| 2026-04-26 08:25 | -29.99793 | 152.94235 | 24335 ft | 425 kts | 23° |
| 2026-04-26 08:25 | -29.97052 | 152.95487 | 24101 ft | 423 kts | 24° |
| 2026-04-26 08:26 | -29.94321 | 152.96732 | 23872 ft | 421 kts | 24° |
| 2026-04-26 08:26 | -29.91599 | 152.97974 | 23624 ft | 421 kts | 23° |
| 2026-04-26 08:26 | -29.88884 | 152.99211 | 23353 ft | 418 kts | 23° |
| 2026-04-26 08:26 | -29.86188 | 153.00438 | 23249 ft | 416 kts | 23° |
| 2026-04-26 08:27 | -29.83529 | 153.01648 | 23240 ft | 417 kts | 23° |
| 2026-04-26 08:27 | -29.80832 | 153.02875 | 23238 ft | 417 kts | 23° |
| 2026-04-26 08:27 | -29.78129 | 153.04103 | 23240 ft | 417 kts | 23° |
| 2026-04-26 08:27 | -29.75432 | 153.05328 | 23239 ft | 417 kts | 23° |
| 2026-04-26 08:28 | -29.72729 | 153.06555 | 23236 ft | 417 kts | 23° |
| 2026-04-26 08:28 | -29.70031 | 153.07779 | 23239 ft | 417 kts | 23° |
| 2026-04-26 08:28 | -29.67320 | 153.09009 | 23235 ft | 419 kts | 23° |
| 2026-04-26 08:28 | -29.64612 | 153.10236 | 23226 ft | 418 kts | 23° |
| 2026-04-26 08:29 | -29.61905 | 153.11461 | 23237 ft | 418 kts | 23° |
| 2026-04-26 08:29 | -29.59232 | 153.12671 | 23230 ft | 419 kts | 23° |
| 2026-04-26 08:29 | -29.56522 | 153.13897 | 23218 ft | 418 kts | 23° |
| 2026-04-26 08:29 | -29.53823 | 153.15117 | 22990 ft | 417 kts | 23° |
| 2026-04-26 08:30 | -29.51133 | 153.16332 | 22721 ft | 414 kts | 23° |
| 2026-04-26 08:30 | -29.48462 | 153.17538 | 22452 ft | 411 kts | 23° |
| 2026-04-26 08:30 | -29.45805 | 153.18738 | 22199 ft | 410 kts | 23° |
| 2026-04-26 08:30 | -29.43150 | 153.19936 | 21940 ft | 409 kts | 23° |
| 2026-04-26 08:31 | -29.40508 | 153.21127 | 21682 ft | 407 kts | 23° |
| 2026-04-26 08:31 | -29.37914 | 153.22295 | 21429 ft | 405 kts | 23° |
| 2026-04-26 08:31 | -29.35302 | 153.23471 | 21182 ft | 403 kts | 23° |
| 2026-04-26 08:31 | -29.32700 | 153.24642 | 20927 ft | 401 kts | 23° |
| 2026-04-26 08:32 | -29.30108 | 153.25808 | 20676 ft | 399 kts | 23° |
| 2026-04-26 08:32 | -29.27531 | 153.26966 | 20430 ft | 397 kts | 23° |
| 2026-04-26 08:32 | -29.24964 | 153.28120 | 20185 ft | 395 kts | 23° |
| 2026-04-26 08:32 | -29.22412 | 153.29267 | 19943 ft | 394 kts | 23° |
| 2026-04-26 08:33 | -29.19867 | 153.30411 | 19701 ft | 392 kts | 23° |
| 2026-04-26 08:33 | -29.17329 | 153.31549 | 19464 ft | 390 kts | 23° |
| 2026-04-26 08:33 | -29.14839 | 153.32665 | 19230 ft | 388 kts | 23° |
| 2026-04-26 08:33 | -29.12331 | 153.33788 | 18992 ft | 387 kts | 23° |
| 2026-04-26 08:34 | -29.09831 | 153.34908 | 18758 ft | 385 kts | 23° |
| 2026-04-26 08:34 | -29.07345 | 153.36021 | 18522 ft | 383 kts | 23° |
| 2026-04-26 08:34 | -29.04868 | 153.37129 | 18257 ft | 381 kts | 23° |
| 2026-04-26 08:34 | -29.02404 | 153.38231 | 17995 ft | 380 kts | 23° |
| 2026-04-26 08:35 | -28.99948 | 153.39329 | 17732 ft | 378 kts | 23° |
| 2026-04-26 08:35 | -28.97507 | 153.40420 | 17471 ft | 376 kts | 23° |
| 2026-04-26 08:35 | -28.95108 | 153.41491 | 17207 ft | 374 kts | 23° |
| 2026-04-26 08:35 | -28.92687 | 153.42572 | 16956 ft | 373 kts | 23° |
| 2026-04-26 08:36 | -28.90273 | 153.43648 | 16701 ft | 372 kts | 23° |
| 2026-04-26 08:36 | -28.87869 | 153.44721 | 16450 ft | 371 kts | 23° |
| 2026-04-26 08:36 | -28.85467 | 153.45791 | 16076 ft | 371 kts | 23° |
| 2026-04-26 08:36 | -28.83065 | 153.46862 | 15562 ft | 370 kts | 23° |
| 2026-04-26 08:37 | -28.80676 | 153.47925 | 15044 ft | 367 kts | 23° |
| 2026-04-26 08:37 | -28.78309 | 153.48977 | 14537 ft | 364 kts | 23° |
| 2026-04-26 08:37 | -28.75990 | 153.50008 | 14015 ft | 362 kts | 23° |
| 2026-04-26 08:37 | -28.73661 | 153.51043 | 13503 ft | 357 kts | 23° |
| 2026-04-26 08:38 | -28.71358 | 153.52066 | 13005 ft | 353 kts | 24° |
| 2026-04-26 08:38 | -28.69083 | 153.53076 | 12514 ft | 349 kts | 24° |
| 2026-04-26 08:38 | -28.66835 | 153.54074 | 12031 ft | 345 kts | 24° |
| 2026-04-26 08:38 | -28.64610 | 153.55061 | 11544 ft | 342 kts | 24° |
| 2026-04-26 08:39 | -28.62400 | 153.56042 | 11067 ft | 339 kts | 24° |
| 2026-04-26 08:39 | -28.60213 | 153.57012 | 10603 ft | 336 kts | 24° |
| 2026-04-26 08:39 | -28.58077 | 153.57957 | 10454 ft | 322 kts | 24° |
| 2026-04-26 08:39 | -28.56060 | 153.58847 | 10334 ft | 309 kts | 24° |
| 2026-04-26 08:40 | -28.54099 | 153.59714 | 10115 ft | 296 kts | 24° |
| 2026-04-26 08:40 | -28.52211 | 153.60548 | 9798 ft | 286 kts | 24° |
| 2026-04-26 08:40 | -28.50347 | 153.61303 | 9503 ft | 280 kts | 21° |
| 2026-04-26 08:40 | -28.48555 | 153.61963 | 9331 ft | 262 kts | 21° |
| 2026-04-26 08:41 | -28.46870 | 153.62572 | 9151 ft | 247 kts | 21° |
| 2026-04-26 08:41 | -28.45248 | 153.63167 | 8829 ft | 244 kts | 22° |
| 2026-04-26 08:41 | -28.43643 | 153.63766 | 8511 ft | 242 kts | 22° |
| 2026-04-26 08:41 | -28.42071 | 153.64358 | 8142 ft | 240 kts | 22° |
| 2026-04-26 08:42 | -28.40487 | 153.64956 | 7694 ft | 239 kts | 22° |
| 2026-04-26 08:42 | -28.38905 | 153.65553 | 7286 ft | 240 kts | 22° |
| 2026-04-26 08:42 | -28.37327 | 153.66133 | 7024 ft | 237 kts | 21° |
| 2026-04-26 08:42 | -28.35803 | 153.66680 | 6872 ft | 222 kts | 21° |
| 2026-04-26 08:43 | -28.34369 | 153.67193 | 6646 ft | 212 kts | 22° |
| 2026-04-26 08:43 | -28.32969 | 153.67699 | 6322 ft | 211 kts | 22° |
| 2026-04-26 08:43 | -28.31570 | 153.68209 | 6004 ft | 211 kts | 22° |
| 2026-04-26 08:43 | -28.30196 | 153.68709 | 5728 ft | 209 kts | 22° |
| 2026-04-26 08:44 | -28.28789 | 153.69147 | 5408 ft | 213 kts | 8° |
| 2026-04-26 08:44 | -28.27323 | 153.68871 | 5084 ft | 219 kts | 336° |
| 2026-04-26 08:44 | -28.25955 | 153.68100 | 4759 ft | 221 kts | 336° |
| 2026-04-26 08:44 | -28.24582 | 153.67319 | 4476 ft | 220 kts | 336° |
| 2026-04-26 08:45 | -28.23267 | 153.66578 | 4394 ft | 201 kts | 336° |
| 2026-04-26 08:45 | -28.22060 | 153.65901 | 4269 ft | 186 kts | 337° |
| 2026-04-26 08:45 | -28.20929 | 153.65273 | 4090 ft | 177 kts | 337° |
| 2026-04-26 08:45 | -28.19826 | 153.64665 | 3810 ft | 176 kts | 337° |
| 2026-04-26 08:46 | -28.18740 | 153.64068 | 3564 ft | 174 kts | 337° |
| 2026-04-26 08:46 | -28.17670 | 153.63478 | 3459 ft | 172 kts | 337° |
| 2026-04-26 08:46 | -28.16595 | 153.62885 | 3396 ft | 172 kts | 337° |
| 2026-04-26 08:46 | -28.15523 | 153.62279 | 3394 ft | 172 kts | 333° |
| 2026-04-26 08:47 | -28.14541 | 153.61505 | 3391 ft | 172 kts | 321° |
| 2026-04-26 08:47 | -28.13613 | 153.60631 | 3398 ft | 175 kts | 322° |
| 2026-04-26 08:47 | -28.12672 | 153.59762 | 3397 ft | 174 kts | 323° |
| 2026-04-26 08:47 | -28.11735 | 153.58906 | 3404 ft | 172 kts | 323° |
| 2026-04-26 08:48 | -28.10806 | 153.58062 | 3411 ft | 172 kts | 323° |
| 2026-04-26 08:48 | -28.09883 | 153.57223 | 3402 ft | 171 kts | 323° |
| 2026-04-26 08:48 | -28.08950 | 153.56356 | 3405 ft | 175 kts | 318° |
| 2026-04-26 08:48 | -28.08161 | 153.55322 | 3407 ft | 174 kts | 303° |
| 2026-04-26 08:49 | -28.07592 | 153.54125 | 3396 ft | 173 kts | 289° |
| 2026-04-26 08:49 | -28.07250 | 153.52793 | 3401 ft | 176 kts | 276° |
| 2026-04-26 08:49 | -28.07160 | 153.51500 | 3398 ft | 157 kts | 263° |
| 2026-04-26 08:49 | -28.07278 | 153.50288 | 3404 ft | 154 kts | 251° |
| 2026-04-26 08:50 | -28.07608 | 153.49181 | 3326 ft | 143 kts | 234° |
| 2026-04-26 08:50 | -28.08172 | 153.48309 | 3025 ft | 137 kts | 216° |
| 2026-04-26 08:50 | -28.08926 | 153.47684 | 2692 ft | 132 kts | 198° |
| 2026-04-26 08:50 | -28.09768 | 153.47342 | 2325 ft | 127 kts | 184° |
| 2026-04-26 08:51 | -28.11478 | 153.47541 | 1622 ft | 130 kts | 155° |
| 2026-04-26 08:51 | -28.12321 | 153.47962 | 1050 ft | 139 kts | 151° |
| 2026-04-26 08:51 | -28.13146 | 153.48469 | 752 ft | 129 kts | 152° |
| 2026-04-26 08:52 | -28.13915 | 153.48963 | 463 ft | 132 kts | 151° |
| 2026-04-26 08:52 | -28.14712 | 153.49477 | 316 ft | 136 kts | 152° |
| 2026-04-26 08:52 | -28.15530 | 153.50008 | 87 ft | 131 kts | 154° |
| 2026-04-26 08:52 | -28.16289 | 153.50468 | 27 ft | 101 kts | 152° |
| 2026-04-26 08:53 | -28.16637 | 153.50703 | 29 ft | 29 kts | 148° |
| 2026-04-26 08:53 | -28.16815 | 153.50822 | 28 ft | 31 kts | 150° |
| 2026-04-26 08:53 | -28.16935 | 153.50926 | 27 ft | 1 kts | 95° |
| 2026-04-26 08:53 | -28.16938 | 153.50956 | 26 ft | 7 kts | 95° |
| 2026-04-26 08:54 | -28.16925 | 153.50997 | 26 ft | 0 kts | 62° |